createdAt,value
2019-05-07T00:00:55.680Z,99967.33
2019-05-07T00:03:22.469Z,99965.73
2019-05-07T00:05:49.193Z,99956.73
2019-05-07T00:08:15.975Z,99962.36
2019-05-07T00:10:42.692Z,99961.52
2019-05-07T00:13:09.358Z,99960.58
2019-05-07T00:15:36.216Z,99970.44
2019-05-07T00:18:03.388Z,99965.36
2019-05-07T00:20:32.555Z,99970.72
2019-05-07T00:22:58.975Z,99971.07
2019-05-07T00:25:25.670Z,99969.44
2019-05-07T00:27:54.848Z,99960.03
2019-05-07T00:30:22.361Z,99967.11
2019-05-07T00:32:49.216Z,99965.92
2019-05-07T00:35:18.528Z,99961.54
2019-05-07T00:37:52.382Z,99950.85
2019-05-07T00:40:45.014Z,99956.39
2019-05-07T00:43:17.833Z,99956.39
2019-05-07T00:46:04.098Z,99959.41
2019-05-07T00:48:32.832Z,99961.25
2019-05-07T00:51:17.677Z,99956.28
2019-05-07T00:53:44.454Z,99953.36
2019-05-07T00:56:12.420Z,99957.89
2019-05-07T00:58:39.342Z,99959.17
2019-05-07T01:01:06.442Z,99957.23
2019-05-07T01:03:33.907Z,99959.72
2019-05-07T01:06:02.072Z,99965.77
2019-05-07T01:08:29.102Z,99971.67
2019-05-07T01:10:56.175Z,99963.68
2019-05-07T01:13:23.527Z,99959.81
2019-05-07T01:15:50.440Z,99957.13
2019-05-07T01:18:17.120Z,99948.69
2019-05-07T01:20:43.722Z,99956.60
2019-05-07T01:23:13.234Z,99956.60
2019-05-07T01:25:39.406Z,99948.69
2019-05-07T01:28:06.191Z,99957.88
2019-05-07T01:30:32.994Z,99957.44
2019-05-07T01:33:20.175Z,99963.06
2019-05-07T01:36:10.304Z,99967.56
2019-05-07T01:38:36.995Z,99973.55
2019-05-07T01:41:03.739Z,99968.80
2019-05-07T01:43:32.124Z,99970.62
2019-05-07T01:45:59.061Z,99967.75
2019-05-07T01:48:26.889Z,99973.75
2019-05-07T01:50:53.689Z,99968.92
2019-05-07T01:53:22.600Z,99970.44
2019-05-07T01:55:49.147Z,99972.39
2019-05-07T01:58:15.911Z,99968.81
2019-05-07T02:00:42.706Z,99975.77
2019-05-07T02:03:16.936Z,99977.59
2019-05-07T02:05:49.700Z,99984.19
2019-05-07T02:08:26.601Z,99977.89
2019-05-07T02:13:41.891Z,99969.28
2019-05-07T02:16:08.439Z,99979.51
2019-05-07T02:18:35.153Z,99976.02
2019-05-07T02:21:03.979Z,99981.00
2019-05-07T02:23:32.869Z,99984.47
2019-05-07T02:25:59.375Z,99978.73
2019-05-07T02:28:26.142Z,99983.90
2019-05-07T02:30:56.736Z,99987.81
2019-05-07T02:33:23.695Z,99983.66
2019-05-07T02:35:53.351Z,99983.21
2019-05-07T02:38:26.725Z,99942.95
2019-05-07T02:41:15.779Z,99981.65
2019-05-07T02:43:43.762Z,99987.22
2019-05-07T02:46:33.003Z,99985.95
2019-05-07T02:49:23.475Z,99986.49
2019-05-07T02:51:56.536Z,99989.95
2019-05-07T02:54:28.182Z,99981.67
2019-05-07T02:56:56.205Z,99986.16
2019-05-07T02:59:23.504Z,99992.61
2019-05-07T03:01:53.464Z,99992.22
2019-05-07T03:04:19.263Z,99988.12
2019-05-07T03:06:46.063Z,99995.92
2019-05-07T03:09:14.368Z,99990.89
2019-05-07T03:11:43.445Z,99991.98
2019-05-07T03:14:10.246Z,99991.79
2019-05-07T03:16:43.629Z,99987.23
2019-05-07T03:19:05.631Z,99987.39
2019-05-07T03:21:53.457Z,99991.46
2019-05-07T03:24:25.127Z,99986.56
2019-05-07T03:26:53.584Z,99993.28
2019-05-07T03:29:24.024Z,99989.37
2019-05-07T03:32:16.537Z,99995.28
2019-05-07T03:34:50.379Z,100000.30
2019-05-07T03:37:23.681Z,99995.55
2019-05-07T03:39:50.427Z,99993.03
2019-05-07T03:42:17.265Z,99997.20
2019-05-07T03:45:09.258Z,99995.17
2019-05-07T03:47:38.391Z,99998.23
2019-05-07T03:50:07.731Z,100002.44
2019-05-07T03:52:35.707Z,100002.57
2019-05-07T03:55:03.669Z,100010.13
2019-05-07T03:57:33.329Z,100000.99
2019-05-07T03:59:59.993Z,100014.06
2019-05-07T04:02:26.771Z,100015.00
2019-05-07T04:04:53.543Z,100011.17
2019-05-07T04:07:23.368Z,100010.94
2019-05-07T04:09:53.331Z,100012.86
2019-05-07T04:12:20.084Z,100007.39
2019-05-07T04:14:46.669Z,100015.47
2019-05-07T04:17:21.405Z,100021.62
2019-05-07T04:19:44.119Z,100008.67
2019-05-07T04:22:13.373Z,100010.46
2019-05-07T04:25:04.419Z,100003.27
2019-05-07T04:27:46.288Z,100009.08
2019-05-07T04:30:12.747Z,100014.99
2019-05-07T04:32:46.432Z,100014.99
2019-05-07T04:35:29.155Z,100013.05
2019-05-07T04:37:55.956Z,100009.08
2019-05-07T04:40:24.023Z,100012.84
2019-05-07T04:42:53.750Z,100011.87
2019-05-07T04:45:23.184Z,100008.98
2019-05-07T04:47:49.520Z,100009.53
2019-05-07T04:50:36.756Z,100007.62
2019-05-07T04:52:47.202Z,100008.23
2019-05-07T04:55:14.892Z,100009.05
2019-05-07T04:57:43.877Z,100014.39
2019-05-07T05:00:13.392Z,100013.55
2019-05-07T05:02:53.184Z,100013.55
2019-05-07T05:05:23.266Z,100005.56
2019-05-07T05:07:49.119Z,100013.09
2019-05-07T05:10:15.910Z,100016.77
2019-05-07T05:12:43.025Z,100020.17
2019-05-07T05:15:12.054Z,100024.03
2019-05-07T05:17:48.053Z,100017.86
2019-05-07T05:20:08.072Z,100013.73
2019-05-07T05:22:45.464Z,100022.27
2019-05-07T05:25:16.331Z,100021.89
2019-05-07T05:27:43.126Z,100021.55
2019-05-07T05:30:17.226Z,100022.84
2019-05-07T05:32:43.934Z,100022.09
2019-05-07T05:35:12.638Z,100028.20
2019-05-07T05:37:39.301Z,100031.45
2019-05-07T05:40:28.369Z,100029.36
2019-05-07T05:43:04.868Z,100026.94
2019-05-07T05:45:38.719Z,100025.17
2019-05-07T05:48:08.469Z,100024.38
2019-05-07T05:50:55.957Z,100021.89
2019-05-07T05:53:45.699Z,100020.91
2019-05-07T05:56:19.635Z,100022.16
2019-05-07T05:59:02.829Z,100016.57
2019-05-07T06:01:52.176Z,100018.37
2019-05-07T06:04:26.570Z,100008.70
2019-05-07T06:07:08.804Z,100013.55
2019-05-07T06:09:57.118Z,100012.34
2019-05-07T06:12:46.142Z,100003.20
2019-05-07T06:15:23.084Z,100002.14
2019-05-07T06:20:58.795Z,100017.99
2019-05-07T06:23:37.033Z,100018.69
2019-05-07T06:26:05.028Z,100021.88
2019-05-07T06:28:33.046Z,100017.70
2019-05-07T06:31:02.023Z,100024.14
2019-05-07T06:33:28.484Z,100021.42
2019-05-07T06:35:55.294Z,100018.95
2019-05-07T06:38:23.004Z,100023.42
2019-05-07T06:41:03.967Z,100018.41
2019-05-07T06:43:38.406Z,100030.55
2019-05-07T06:46:05.308Z,99919.64
2019-05-07T06:48:41.959Z,100035.22
2019-05-07T06:51:02.885Z,100031.75
2019-05-07T06:53:32.942Z,100031.34
2019-05-07T06:56:02.669Z,100031.14
2019-05-07T06:58:35.157Z,100032.75
2019-05-07T07:01:36.607Z,100032.16
2019-05-07T07:04:09.534Z,100034.16
2019-05-07T07:06:55.773Z,100027.32
2019-05-07T07:09:29.058Z,100021.25
2019-05-07T07:11:59.403Z,100021.34
2019-05-07T07:14:26.279Z,100014.19
2019-05-07T07:16:52.951Z,100019.41
2019-05-07T07:19:23.128Z,100020.06
2019-05-07T07:21:49.509Z,100018.16
2019-05-07T07:24:16.279Z,99999.39
2019-05-07T07:26:43.094Z,99995.08
2019-05-07T07:29:12.711Z,100003.00
2019-05-07T07:31:46.459Z,99996.08
2019-05-07T07:34:13.200Z,100000.13
2019-05-07T07:36:47.109Z,99997.73
2019-05-07T07:39:13.823Z,100002.69
2019-05-07T07:41:47.483Z,100007.09
2019-05-07T07:44:14.272Z,100004.19
2019-05-07T07:46:42.415Z,99994.13
2019-05-07T07:49:14.032Z,99995.27
2019-05-07T07:51:42.202Z,99991.98
2019-05-07T07:54:06.962Z,99986.30
2019-05-07T07:56:56.332Z,99989.72
2019-05-07T07:59:42.208Z,99992.94
2019-05-07T08:02:23.169Z,100000.16
2019-05-07T08:04:50.021Z,99994.81
2019-05-07T08:07:16.778Z,99995.60
2019-05-07T08:09:43.541Z,99984.86
2019-05-07T08:12:12.544Z,99990.56
2019-05-07T08:14:39.012Z,99998.27
2019-05-07T08:17:07.478Z,100001.19
2019-05-07T08:19:34.253Z,100006.48
2019-05-07T08:22:02.924Z,100015.52
2019-05-07T08:24:31.907Z,100014.28
2019-05-07T08:26:58.434Z,100006.50
2019-05-07T08:29:25.118Z,100002.27
2019-05-07T08:32:12.603Z,99998.34
2019-05-07T08:34:47.631Z,100004.48
2019-05-07T08:37:14.421Z,99998.74
2019-05-07T08:39:42.858Z,99998.60
2019-05-07T08:42:12.110Z,99998.31
2019-05-07T08:44:44.991Z,99991.36
2019-05-07T08:47:18.220Z,99993.20
2019-05-07T08:49:44.796Z,99982.56
2019-05-07T08:52:12.113Z,99976.09
2019-05-07T08:54:38.978Z,99977.14
2019-05-07T08:57:05.765Z,99976.50
2019-05-07T08:59:33.613Z,99975.19
2019-05-07T09:02:03.023Z,99974.52
2019-05-07T09:04:29.415Z,99975.27
2019-05-07T09:06:56.211Z,99978.02
2019-05-07T09:09:22.987Z,99974.56
2019-05-07T09:11:51.868Z,99973.14
2019-05-07T09:14:18.638Z,99972.91
2019-05-07T09:16:45.328Z,99973.78
2019-05-07T09:19:12.920Z,99984.05
2019-05-07T09:21:39.899Z,99978.85
2019-05-07T09:24:07.383Z,99974.62
2019-05-07T09:26:44.408Z,99969.63
2019-05-07T09:29:28.466Z,99959.98
2019-05-07T09:32:15.679Z,99963.34
2019-05-07T09:34:44.585Z,99953.53
2019-05-07T09:37:16.225Z,99958.06
2019-05-07T09:39:43.058Z,99958.55
2019-05-07T09:42:12.066Z,99961.25
2019-05-07T09:44:38.407Z,99980.94
2019-05-07T09:47:05.205Z,99964.08
2019-05-07T09:49:32.697Z,99965.59
2019-05-07T09:51:59.549Z,99961.91
2019-05-07T09:54:26.336Z,99957.30
2019-05-07T09:56:53.023Z,99958.38
2019-05-07T09:59:21.723Z,99955.28
2019-05-07T10:01:48.482Z,99962.69
2019-05-07T10:04:15.276Z,99949.81
2019-05-07T10:06:42.461Z,99942.40
2019-05-07T10:09:09.319Z,99931.78
2019-05-07T10:11:45.019Z,99926.34
2019-05-07T10:14:12.504Z,99927.85
2019-05-07T10:16:46.029Z,99931.87
2019-05-07T10:19:12.774Z,99925.83
2019-05-07T10:21:39.541Z,99933.76
2019-05-07T10:24:06.317Z,99927.09
2019-05-07T10:26:33.183Z,99924.32
2019-05-07T10:29:02.000Z,99923.91
2019-05-07T10:31:28.648Z,99925.31
2019-05-07T10:33:55.452Z,99922.94
2019-05-07T10:36:23.526Z,99920.24
2019-05-07T10:38:52.063Z,99909.40
2019-05-07T10:41:18.899Z,99914.19
2019-05-07T10:43:45.728Z,99910.70
2019-05-07T10:46:38.221Z,99911.59
2019-05-07T10:49:14.784Z,99901.30
2019-05-07T10:51:42.544Z,99910.03
2019-05-07T10:54:09.456Z,99904.41
2019-05-07T10:56:36.228Z,99907.84
2019-05-07T10:59:03.699Z,99909.36
2019-05-07T11:02:02.522Z,99909.98
2019-05-07T11:04:40.163Z,99922.34
2019-05-07T11:06:57.968Z,99919.06
2019-05-07T11:09:24.670Z,99911.83
2019-05-07T11:11:51.902Z,99912.15
2019-05-07T11:14:18.700Z,99902.36
2019-05-07T11:16:53.720Z,99898.14
2019-05-07T11:19:22.096Z,99898.05
2019-05-07T11:21:48.904Z,99891.48
2019-05-07T11:24:15.597Z,99892.63
2019-05-07T11:26:42.384Z,99884.33
2019-05-07T11:29:09.006Z,99884.31
2019-05-07T11:31:35.785Z,99890.08
2019-05-07T11:34:04.565Z,99885.64
2019-05-07T11:36:37.035Z,99880.88
2019-05-07T11:39:05.379Z,99872.80
2019-05-07T11:41:45.607Z,99877.15
2019-05-07T11:44:17.481Z,99875.23
2019-05-07T11:47:03.939Z,99874.78
2019-05-07T11:49:56.349Z,99873.62
2019-05-07T11:52:28.315Z,99864.14
2019-05-07T11:54:55.084Z,99867.20
2019-05-07T11:57:22.195Z,99860.93
2019-05-07T11:59:48.862Z,99857.07
2019-05-07T12:02:15.634Z,99855.05
2019-05-07T12:04:42.323Z,99845.19
2019-05-07T12:07:09.120Z,99854.38
2019-05-07T12:09:35.903Z,99845.09
2019-05-07T12:12:02.676Z,99855.23
2019-05-07T12:14:32.520Z,99839.93
2019-05-07T12:16:58.082Z,99838.36
2019-05-07T12:19:24.751Z,99839.94
2019-05-07T12:21:52.646Z,99832.51
2019-05-07T12:24:19.444Z,99830.36
2019-05-07T12:26:46.223Z,99822.36
2019-05-07T12:29:12.960Z,99824.94
2019-05-07T12:32:08.402Z,99821.42
2019-05-07T12:34:38.275Z,99807.92
2019-05-07T12:37:05.080Z,99802.77
2019-05-07T12:39:32.023Z,99797.80
2019-05-07T12:41:58.859Z,99805.00
2019-05-07T12:44:27.192Z,99809.53
2019-05-07T12:46:54.035Z,99804.78
2019-05-07T12:49:22.113Z,99802.06
2019-05-07T12:51:54.726Z,99797.34
2019-05-07T12:54:36.089Z,99799.36
2019-05-07T12:57:02.501Z,99793.66
2019-05-07T12:59:29.604Z,99784.12
2019-05-07T13:02:33.183Z,99791.44
2019-05-07T13:04:45.058Z,99789.48
2019-05-07T13:07:32.506Z,99784.23
2019-05-07T13:09:59.402Z,99774.29
2019-05-07T13:12:26.619Z,99773.63
2019-05-07T13:14:53.439Z,99772.25
2019-05-07T13:17:22.266Z,99773.91
2019-05-07T13:19:48.910Z,99765.37
2019-05-07T13:22:17.659Z,99761.21
2019-05-07T13:24:46.884Z,99749.01
2019-05-07T13:27:13.632Z,99752.02
2019-05-07T13:29:42.491Z,99752.94
2019-05-07T13:32:12.255Z,99751.94
2019-05-07T13:34:42.550Z,99747.41
2019-05-07T13:37:21.803Z,99752.80
2019-05-07T13:39:53.781Z,99745.80
2019-05-07T13:42:58.184Z,99736.63
2019-05-07T13:45:33.304Z,99743.45
2019-05-07T13:48:07.511Z,99733.94
2019-05-07T13:50:54.399Z,99737.52
2019-05-07T13:53:22.805Z,99739.61
2019-05-07T13:55:50.175Z,99720.25
2019-05-07T13:58:16.974Z,99721.06
2019-05-07T14:01:06.711Z,99730.97
2019-05-07T14:03:33.497Z,99732.41
2019-05-07T14:06:02.091Z,99720.79
2019-05-07T14:08:32.060Z,99720.59
2019-05-07T14:10:58.940Z,99724.59
2019-05-07T14:13:25.738Z,99724.85
2019-05-07T14:16:05.717Z,99723.05
2019-05-07T14:18:32.717Z,99714.77
2019-05-07T14:21:01.783Z,99728.67
2019-05-07T14:23:28.520Z,99719.25
2019-05-07T14:25:55.184Z,99713.77
2019-05-07T14:28:23.686Z,99712.31
2019-05-07T14:30:52.255Z,99714.45
2019-05-07T14:33:37.970Z,99714.34
2019-05-07T14:36:11.625Z,99700.62
2019-05-07T14:38:42.603Z,99705.95
2019-05-07T14:41:09.558Z,99700.62
2019-05-07T14:43:41.911Z,99691.73
2019-05-07T14:46:08.792Z,99697.75
2019-05-07T14:48:36.639Z,99699.67
2019-05-07T14:51:03.524Z,99702.36
2019-05-07T14:53:32.655Z,99701.37
2019-05-07T14:55:59.730Z,99698.49
2019-05-07T14:58:26.504Z,99693.39
2019-05-07T15:00:54.682Z,99689.64
2019-05-07T15:03:22.909Z,99687.80
2019-05-07T15:05:55.115Z,99685.59
2019-05-07T15:08:22.076Z,99687.20
2019-05-07T15:10:48.949Z,99684.72
2019-05-07T15:13:18.171Z,99696.39
2019-05-07T15:15:45.338Z,99694.69
2019-05-07T15:18:18.655Z,99702.02
2019-05-07T15:20:45.758Z,99700.39
2019-05-07T15:23:19.941Z,99707.20
2019-05-07T15:25:46.813Z,99699.21
2019-05-07T15:28:13.892Z,99696.27
2019-05-07T15:30:56.107Z,99695.01
2019-05-07T15:33:22.896Z,99695.17
2019-05-07T15:35:51.570Z,99697.31
2019-05-07T15:38:21.601Z,99705.14
2019-05-07T15:40:48.395Z,99701.50
2019-05-07T15:43:15.176Z,99694.66
2019-05-07T15:45:41.989Z,99702.67
2019-05-07T15:48:08.771Z,99698.55
2019-05-07T15:50:35.456Z,99694.22
2019-05-07T15:53:13.887Z,99694.14
2019-05-07T15:55:41.750Z,99688.91
2019-05-07T15:58:08.609Z,99684.86
2019-05-07T16:00:36.727Z,99685.44
2019-05-07T16:03:18.869Z,99683.90
2019-05-07T16:05:45.608Z,99685.95
2019-05-07T16:08:14.014Z,99683.61
2019-05-07T16:10:42.897Z,99685.21
2019-05-07T16:13:13.755Z,99682.86
2019-05-07T16:15:42.385Z,99669.88
2019-05-07T16:18:13.849Z,99678.17
2019-05-07T16:20:42.342Z,99675.73
2019-05-07T16:23:14.620Z,99669.20
2019-05-07T16:25:38.251Z,99669.25
2019-05-07T16:28:05.149Z,99667.66
2019-05-07T16:30:34.397Z,99671.55
2019-05-07T16:33:02.123Z,99670.70
2019-05-07T16:35:29.059Z,99662.47
2019-05-07T16:37:55.884Z,99662.77
2019-05-07T16:40:23.052Z,99661.94
2019-05-07T16:42:52.220Z,99660.59
2019-05-07T16:45:19.427Z,99656.65
2019-05-07T16:47:46.126Z,99654.39
2019-05-07T16:50:13.455Z,99657.80
2019-05-07T16:52:42.033Z,99649.02
2019-05-07T16:55:12.105Z,99650.55
2019-05-07T16:58:12.845Z,99647.86
2019-05-07T17:00:46.495Z,99645.50
2019-05-07T17:03:17.369Z,99645.13
2019-05-07T17:05:43.968Z,99635.16
2019-05-07T17:08:24.259Z,99644.58
2019-05-07T17:10:52.356Z,99641.11
2019-05-07T17:13:19.349Z,99639.12
2019-05-07T17:15:58.778Z,99635.49
2019-05-07T17:18:26.266Z,99637.79
2019-05-07T17:20:53.655Z,99634.81
2019-05-07T17:23:22.431Z,99634.69
2019-05-07T17:25:49.195Z,99648.97
2019-05-07T17:28:16.167Z,99634.38
2019-05-07T17:30:42.848Z,99636.52
2019-05-07T17:33:09.715Z,99633.83
2019-05-07T17:35:36.448Z,99635.45
2019-05-07T17:38:07.352Z,99626.67
2019-05-07T17:40:32.185Z,99629.55
2019-05-07T17:43:03.003Z,99636.34
2019-05-07T17:45:29.269Z,99630.94
2019-05-07T17:47:56.046Z,99631.00
2019-05-07T17:50:27.842Z,99635.33
2019-05-07T17:52:54.733Z,99636.25
2019-05-07T17:55:22.305Z,99629.92
2019-05-07T17:57:49.274Z,99634.36
2019-05-07T18:00:17.039Z,99638.54
2019-05-07T18:03:09.232Z,99629.02
2019-05-07T18:05:35.923Z,99626.72
2019-05-07T18:08:02.701Z,99627.55
2019-05-07T18:10:31.752Z,99618.80
2019-05-07T18:12:58.170Z,99619.03
2019-05-07T18:15:24.825Z,99617.20
2019-05-07T18:18:00.279Z,99621.50
2019-05-07T18:20:27.267Z,99617.58
2019-05-07T18:22:54.060Z,99627.66
2019-05-07T18:25:21.727Z,99620.11
2019-05-07T18:27:48.500Z,99618.81
2019-05-07T18:30:15.393Z,99620.52
2019-05-07T18:32:46.139Z,99620.52
2019-05-07T18:35:12.688Z,99615.24
2019-05-07T18:37:52.509Z,99610.83
2019-05-07T18:40:20.350Z,99610.75
2019-05-07T18:42:47.131Z,99615.74
2019-05-07T18:45:13.895Z,99616.58
2019-05-07T18:47:40.587Z,99614.98
2019-05-07T18:50:07.509Z,99617.83
2019-05-07T18:52:34.096Z,99614.02
2019-05-07T18:55:02.762Z,99615.29
2019-05-07T18:57:29.397Z,99616.25
2019-05-07T18:59:55.977Z,99618.67
2019-05-07T19:02:22.775Z,99623.39
2019-05-07T19:04:51.805Z,99618.83
2019-05-07T19:07:18.284Z,99612.76
2019-05-07T19:09:47.748Z,99612.11
2019-05-07T19:12:15.991Z,99614.16
2019-05-07T19:14:42.815Z,99621.80
2019-05-07T19:17:09.508Z,99618.20
2019-05-07T19:19:36.435Z,99624.02
2019-05-07T19:22:03.199Z,99619.83
2019-05-07T19:24:43.725Z,99617.84
2019-05-07T19:26:58.547Z,99621.52
2019-05-07T19:29:25.393Z,99619.31
2019-05-07T19:31:52.619Z,99626.83
2019-05-07T19:34:21.820Z,99625.41
2019-05-07T19:36:48.535Z,99627.78
2019-05-07T19:39:15.329Z,99620.84
2019-05-07T19:41:43.009Z,99625.80
2019-05-07T19:44:09.886Z,99624.38
2019-05-07T19:46:36.666Z,99626.24
2019-05-07T19:49:03.491Z,99622.69
2019-05-07T19:51:31.980Z,99623.10
2019-05-07T19:53:58.654Z,99622.89
2019-05-07T19:56:25.427Z,99616.24
2019-05-07T19:58:52.707Z,99613.25
2019-05-07T20:01:37.013Z,99608.62
2019-05-07T20:04:03.811Z,99613.06
2019-05-07T20:06:32.746Z,99607.53
2019-05-07T20:09:09.918Z,99606.91
2019-05-07T20:11:39.042Z,99608.62
2019-05-07T20:14:05.882Z,99610.20
2019-05-07T20:16:33.937Z,99605.37
2019-05-07T20:19:01.457Z,99612.74
2019-05-07T20:21:28.232Z,99610.94
2019-05-07T20:23:54.916Z,99579.51
2019-05-07T20:26:23.177Z,99609.69
2019-05-07T20:28:52.567Z,99608.47
2019-05-07T20:31:19.101Z,99600.66
2019-05-07T20:33:45.806Z,99599.53
2019-05-07T20:36:12.593Z,99600.89
2019-05-07T20:38:39.405Z,99602.06
2019-05-07T20:41:06.212Z,99603.34
2019-05-07T20:43:32.996Z,99602.02
2019-05-07T20:46:00.079Z,99595.64
2019-05-07T20:48:29.279Z,99591.73
2019-05-07T20:50:56.355Z,99592.19
2019-05-07T20:53:42.787Z,99592.30
2019-05-07T20:56:11.710Z,99587.27
2019-05-07T20:58:38.638Z,99587.44
2019-05-07T21:01:05.450Z,99582.89
2019-05-07T21:03:32.555Z,99584.95
2019-05-07T21:05:59.304Z,99578.59
2019-05-07T21:08:25.992Z,99580.81
2019-05-07T21:10:53.794Z,99577.36
2019-05-07T21:13:30.124Z,99578.09
2019-05-07T21:15:49.445Z,99576.86
2019-05-07T21:18:16.283Z,99572.16
2019-05-07T21:20:43.038Z,99575.30
2019-05-07T21:23:12.067Z,99565.11
2019-05-07T21:25:45.203Z,99561.58
2019-05-07T21:28:07.169Z,99557.00
2019-05-07T21:30:33.974Z,99557.41
2019-05-07T21:33:00.691Z,99554.55
2019-05-07T21:35:27.377Z,99543.17
2019-05-07T21:37:54.155Z,99537.55
2019-05-07T21:40:22.465Z,99531.95
2019-05-07T21:42:49.611Z,99534.06
2019-05-07T21:45:16.528Z,99527.36
2019-05-07T21:47:43.211Z,99522.94
2019-05-07T21:50:12.284Z,99522.70
2019-05-07T21:52:40.756Z,99515.39
2019-05-07T21:55:23.572Z,99515.39
2019-05-07T21:58:13.382Z,99518.06
2019-05-07T22:01:02.131Z,99511.69
2019-05-07T22:03:34.659Z,99512.87
2019-05-07T22:05:58.702Z,99510.80
2019-05-07T22:08:25.579Z,99500.84
2019-05-07T22:10:52.562Z,99498.61
2019-05-07T22:13:21.913Z,99495.36
2019-05-07T22:15:48.355Z,99498.93
2019-05-07T22:18:15.033Z,99501.38
2019-05-07T22:20:42.685Z,99490.23
2019-05-07T22:23:09.437Z,99486.00
2019-05-07T22:25:36.483Z,99498.61
2019-05-07T22:28:04.769Z,99495.66
2019-05-07T22:30:52.803Z,99497.98
2019-05-07T22:33:28.701Z,99500.66
2019-05-07T22:35:55.615Z,99503.69
2019-05-07T22:38:22.894Z,99503.86
2019-05-07T22:40:51.692Z,99492.42
2019-05-07T22:43:18.376Z,99487.11
2019-05-07T22:45:45.167Z,99485.68
2019-05-07T22:48:12.327Z,99473.57
2019-05-07T22:50:39.200Z,99471.38
2019-05-07T22:53:05.929Z,99465.89
2019-05-07T22:55:32.892Z,99463.33
2019-05-07T22:58:14.010Z,99451.73
2019-05-07T23:00:49.834Z,99453.59
2019-05-07T23:03:16.516Z,99463.72
2019-05-07T23:05:44.956Z,99452.17
2019-05-07T23:08:12.788Z,99449.15
2019-05-07T23:10:39.845Z,99449.95
2019-05-07T23:13:06.450Z,99452.17
2019-05-07T23:15:33.313Z,99448.63
2019-05-07T23:18:04.171Z,99437.73
2019-05-07T23:20:28.858Z,99432.42
2019-05-07T23:22:55.654Z,99424.78
2019-05-07T23:25:24.465Z,99422.01
2019-05-07T23:27:52.472Z,99420.00
2019-05-07T23:30:19.391Z,99419.06
2019-05-07T23:32:45.995Z,99415.23
2019-05-07T23:35:13.178Z,99410.13
2019-05-07T23:37:42.154Z,99418.91
2019-05-07T23:40:15.963Z,99409.54
2019-05-07T23:42:43.847Z,99403.12
2019-05-07T23:45:12.560Z,99406.00
2019-05-07T23:47:39.641Z,99400.70
2019-05-07T23:50:06.621Z,99394.17
2019-05-07T23:52:33.334Z,99389.30
2019-05-07T23:55:03.012Z,99380.34
2019-05-07T23:57:32.323Z,99377.02
2019-05-07T23:59:58.315Z,99379.31
